Time;durP1;ratioP1;P1;durP2;ratioP2;P2;SDS_P1;SDS_P2;PMS_P1;PMS_P2;Temp;Humidity;BMP_temperature;BMP_pressure;BME280_temperature;BME280_humidity;BME280_pressure;Samples;Min_cycle;Max_cycle;Signal;HPM_P1;HPM_P2
2022/05/13 00:00:45;;;;;;;9.40;4.80;;;11.00;99.90;;;11.87;89.92;163654.56;5031120;28;20037;-82
2022/05/13 00:03:10;;;;;;;9.15;5.18;;;11.00;99.90;;;11.80;90.70;163637.19;5031254;28;20029;-85
2022/05/13 00:05:37;;;;;;;8.80;4.72;;;11.00;99.90;;;11.75;90.92;163622.50;5030799;28;20102;-84
2022/05/13 00:08:03;;;;;;;11.93;4.55;;;10.90;99.90;;;11.69;91.57;163607.72;5031159;28;20033;-86
2022/05/13 00:10:29;;;;;;;9.77;4.35;;;10.90;99.90;;;11.64;91.65;163595.72;5040886;28;20469;-83
2022/05/13 00:12:55;;;;;;;10.00;4.38;;;10.80;99.90;;;11.61;91.89;163586.34;5051582;28;20036;-83
2022/05/13 00:15:26;;;;;;;7.68;4.38;;;10.80;99.90;;;11.55;92.52;163571.66;5051749;28;20029;-83
2022/05/13 00:17:56;;;;;;;7.25;5.15;;;10.70;99.90;;;11.58;93.40;163578.34;5050840;28;20159;-83
2022/05/13 00:20:24;;;;;;;7.90;3.85;;;10.80;99.90;;;11.60;93.74;163583.66;5052735;28;20108;-83
2022/05/13 00:22:56;;;;;;;8.60;4.78;;;10.80;99.90;;;11.62;94.10;163589.03;5051409;28;20025;-82
2022/05/13 00:25:32;;;;;;;7.57;4.82;;;10.80;99.90;;;11.67;93.96;163602.38;5051277;28;20025;-85
2022/05/13 00:28:01;;;;;;;9.20;4.47;;;10.90;99.90;;;11.72;93.69;163614.50;5051838;28;20120;-84
2022/05/13 00:30:31;;;;;;;10.38;4.50;;;10.80;99.90;;;11.80;93.37;163637.19;5051372;28;20052;-83
2022/05/13 00:32:58;;;;;;;8.38;4.22;;;11.00;99.90;;;11.88;93.16;163657.25;5053783;28;20036;-85
2022/05/13 00:35:25;;;;;;;6.60;4.15;;;11.00;99.90;;;11.92;92.59;163669.28;5050821;28;20040;-81
2022/05/13 00:37:51;;;;;;;14.15;4.70;;;11.00;99.90;;;11.95;92.55;163675.94;5050511;28;20384;-84
2022/05/13 00:40:21;;;;;;;7.70;4.63;;;11.10;99.90;;;12.01;92.30;163693.31;5051567;28;20041;-81
2022/05/13 00:42:49;;;;;;;7.97;4.13;;;11.10;99.90;;;12.03;91.55;163698.69;5055249;28;20083;-80
2022/05/13 00:45:17;;;;;;;6.70;4.35;;;11.10;99.90;;;12.03;91.38;163698.69;5054350;28;20384;-83
2022/05/13 00:47:45;;;;;;;8.52;4.50;;;11.10;99.90;;;12.03;91.10;163697.34;5054331;28;20063;-84
2022/05/13 00:50:15;;;;;;;7.88;3.60;;;11.10;99.90;;;11.96;91.18;163679.97;5054190;28;20055;-83
2022/05/13 00:52:49;;;;;;;11.52;4.50;;;11.10;99.90;;;11.88;91.15;163657.25;5054614;28;20075;-81
2022/05/13 00:55:43;;;;;;;7.45;4.07;;;11.10;99.90;;;11.83;91.45;163643.88;5071314;28;20036;-82
2022/05/13 00:58:20;;;;;;;7.32;4.13;;;11.00;99.90;;;11.76;91.73;163625.16;5055743;28;20048;-81
2022/05/13 01:00:47;;;;;;;10.48;4.35;;;10.90;99.90;;;11.71;91.42;163613.16;5055053;28;20087;-85
2022/05/13 01:03:15;;;;;;;8.43;3.65;;;10.90;99.90;;;11.68;91.04;163603.72;5053640;28;20029;-87
2022/05/13 01:05:49;;;;;;;12.43;3.90;;;10.90;99.90;;;11.67;90.38;163601.03;5055599;28;20021;-85
2022/05/13 01:08:16;;;;;;;10.20;3.60;;;10.90;99.90;;;11.66;90.16;163599.69;5053662;28;20436;-81
2022/05/13 01:10:45;;;;;;;9.05;3.55;;;10.80;99.90;;;11.68;89.77;163603.72;5041994;28;20121;-81
2022/05/13 01:13:23;;;;;;;5.85;3.10;;;10.80;99.90;;;11.70;89.36;163609.06;5033916;28;20159;-84
2022/05/13 01:15:51;;;;;;;5.55;3.15;;;10.80;99.90;;;11.76;88.97;163626.50;5034093;28;20033;-85
2022/05/13 01:18:35;;;;;;;7.28;3.75;;;10.90;99.90;;;11.78;88.87;163631.88;5035230;28;20422;-83
2022/05/13 01:21:04;;;;;;;8.73;4.03;;;10.90;99.90;;;11.80;88.74;163637.19;5033834;28;20039;-85
2022/05/13 01:23:36;;;;;;;9.30;3.90;;;10.90;99.90;;;11.82;89.04;163641.19;5049937;28;20026;-82
2022/05/13 01:26:11;;;;;;;8.70;4.00;;;10.90;99.90;;;11.83;89.14;163645.22;5034724;28;20036;-83
2022/05/13 01:28:51;;;;;;;6.23;3.03;;;10.90;99.90;;;11.86;88.06;163651.88;5034860;28;20022;-85
2022/05/13 01:31:46;;;;;;;7.13;3.50;;;10.90;99.90;;;11.84;87.70;163646.56;5033386;28;20112;-84
2022/05/13 01:34:14;;;;;;;9.25;2.97;;;10.90;99.90;;;11.84;87.00;163646.56;5030090;28;20068;-82
2022/05/13 01:36:42;;;;;;;10.45;2.83;;;11.00;99.90;;;11.81;86.83;163639.88;5035327;28;20037;-85
2022/05/13 01:39:09;;;;;;;8.05;2.40;;;10.90;99.90;;;11.82;86.73;163641.19;5035179;28;20033;-85
2022/05/13 01:41:35;;;;;;;7.50;2.22;;;11.00;99.90;;;11.84;85.96;163647.91;5033925;28;20076;-86
2022/05/13 01:44:02;;;;;;;5.22;2.30;;;11.00;99.90;;;11.90;85.37;163663.94;5034165;28;20367;-85
2022/05/13 01:46:28;;;;;;;7.50;2.10;;;11.00;99.90;;;11.93;84.67;163670.59;5034092;28;20025;-84
2022/05/13 01:48:55;;;;;;;8.68;2.83;;;11.00;99.90;;;11.98;84.18;163685.31;5039959;28;20053;-79
2022/05/13 01:51:22;;;;;;;6.70;2.17;;;11.00;99.90;;;11.98;83.57;163685.31;5056575;28;20029;-81
2022/05/13 01:53:49;;;;;;;7.70;2.28;;;11.10;99.90;;;11.95;83.38;163675.94;5038471;28;20041;-84
2022/05/13 01:56:16;;;;;;;6.15;2.15;;;11.00;99.90;;;11.90;83.39;163662.59;5034285;28;20033;-85
2022/05/13 01:58:42;;;;;;;7.85;2.15;;;11.00;99.90;;;11.83;84.01;163645.22;5033532;28;20029;-82
2022/05/13 02:01:09;;;;;;;10.75;2.35;;;11.00;99.90;;;11.80;84.26;163635.84;5034546;28;20026;-82
2022/05/13 02:03:45;;;;;;;6.50;2.63;;;11.00;99.90;;;11.73;84.36;163618.47;5035729;28;20359;-81
2022/05/13 02:06:25;;;;;;;8.20;2.53;;;10.90;99.90;;;11.59;85.60;163582.31;5034015;28;20049;-82
2022/05/13 02:08:56;;;;;;;9.88;3.50;;;10.70;99.90;;;11.50;85.92;163556.94;5032796;28;20052;-85
2022/05/13 02:11:28;;;;;;;5.25;1.90;;;10.60;99.90;;;11.42;85.97;163535.59;5049683;28;20029;-83
2022/05/13 02:13:55;;;;;;;4.88;2.22;;;10.60;99.90;;;11.35;86.38;163518.22;5054200;28;20102;-84
2022/05/13 02:16:22;;;;;;;5.47;2.25;;;10.50;99.90;;;11.38;85.95;163526.22;5055515;28;20040;-83
2022/05/13 02:18:48;;;;;;;5.40;2.17;;;10.50;99.90;;;11.38;85.15;163526.22;5053879;28;20036;-84
2022/05/13 02:21:17;;;;;;;7.55;2.30;;;10.50;99.90;;;11.41;85.21;163534.22;5054054;28;20044;-84
2022/05/13 02:23:43;;;;;;;6.68;2.28;;;10.50;99.90;;;11.34;85.06;163514.16;5054126;28;20033;-83
2022/05/13 02:26:14;;;;;;;12.20;2.88;;;10.50;99.90;;;11.32;84.87;163508.84;5053954;28;20040;-83
2022/05/13 02:28:40;;;;;;;6.38;2.88;;;10.50;99.90;;;11.33;85.23;163511.53;5053254;28;20024;-81
2022/05/13 02:31:08;;;;;;;9.85;2.60;;;10.50;99.90;;;11.27;85.26;163495.50;5053221;28;20428;-84
2022/05/13 02:33:34;;;;;;;5.30;2.40;;;10.40;99.90;;;11.22;85.41;163482.13;5053862;28;20033;-83
2022/05/13 02:36:03;;;;;;;8.65;2.88;;;10.40;99.90;;;11.16;85.99;163466.09;5052672;28;20036;-85
2022/05/13 02:38:30;;;;;;;12.23;3.22;;;10.40;99.90;;;11.22;86.34;163482.13;5052772;28;20398;-85
2022/05/13 02:41:11;;;;;;;11.30;2.80;;;10.40;99.90;;;11.15;87.33;163464.75;5051923;28;20508;-80
2022/05/13 02:43:48;;;;;;;9.02;3.22;;;10.40;99.90;;;11.18;87.54;163471.41;5053565;28;20052;-85
2022/05/13 02:46:26;;;;;;;8.73;3.60;;;10.30;99.90;;;11.14;87.86;163460.75;5055634;28;20413;-83
2022/05/13 02:48:52;;;;;;;9.52;3.42;;;10.30;99.90;;;11.06;88.30;163442.06;5056096;28;20029;-83
2022/05/13 02:51:20;;;;;;;11.25;4.03;;;10.30;99.90;;;11.02;90.32;163431.34;5058551;28;20056;-82
2022/05/13 02:53:47;;;;;;;9.07;3.85;;;10.30;99.90;;;10.97;90.47;163418.00;5058501;28;20110;-85
2022/05/13 02:56:14;;;;;;;7.75;4.03;;;10.20;99.90;;;10.97;91.05;163416.66;5056053;28;20029;-85
2022/05/13 02:58:41;;;;;;;5.38;3.13;;;10.20;99.90;;;10.95;91.21;163412.63;5053297;28;20025;-84
2022/05/13 03:01:11;;;;;;;7.30;3.30;;;10.20;99.90;;;10.91;90.93;163401.97;5052937;28;20040;-83
2022/05/13 03:03:45;;;;;;;8.60;3.22;;;10.10;99.90;;;10.84;91.28;163383.28;5052392;28;20021;-82
2022/05/13 03:06:12;;;;;;;7.60;3.47;;;10.00;99.90;;;10.79;90.99;163369.88;5054002;28;20369;-83
2022/05/13 03:08:40;;;;;;;8.38;3.30;;;10.00;99.90;;;10.70;91.51;163345.84;5053828;28;20433;-86
2022/05/13 03:11:07;;;;;;;8.60;3.40;;;9.90;99.90;;;10.58;91.89;163313.81;5039593;28;20038;-88
2022/05/13 03:13:34;;;;;;;5.88;3.45;;;9.80;99.90;;;10.49;92.50;163291.13;5034419;28;20021;-82
2022/05/13 03:16:19;;;;;;;5.90;2.90;;;9.70;99.90;;;10.34;93.10;163251.03;5035206;28;20056;-87
2022/05/13 03:18:52;;;;;;;6.30;3.03;;;9.50;99.90;;;10.25;93.92;163225.66;5033613;28;20137;-83
2022/05/13 03:21:19;;;;;;;5.88;2.78;;;9.40;99.90;;;10.11;94.51;163189.59;5035896;28;20496;-83
2022/05/13 03:23:46;;;;;;;7.85;3.20;;;9.30;99.90;;;10.00;95.34;163161.56;5031253;28;20064;-83
2022/05/13 03:26:18;;;;;;;5.93;3.17;;;9.20;99.90;;;9.89;97.10;163132.16;5031104;28;20025;-83
2022/05/13 03:28:44;;;;;;;8.30;3.40;;;9.10;99.90;;;9.78;97.93;163101.47;5031117;28;20096;-83
2022/05/13 03:31:11;;;;;;;6.82;3.42;;;9.00;99.90;;;9.71;98.65;163082.78;5032000;28;20037;-84
2022/05/13 03:33:38;;;;;;;8.70;3.15;;;8.90;99.90;;;9.66;98.87;163069.44;5032390;28;20025;-83
2022/05/13 03:36:05;;;;;;;8.02;3.30;;;8.90;99.90;;;9.68;100.00;163074.78;5032205;28;20034;-83
2022/05/13 03:38:31;;;;;;;8.40;3.65;;;8.90;99.90;;;9.74;100.00;163090.78;5033324;28;20033;-84
2022/05/13 03:40:57;;;;;;;9.25;3.20;;;8.90;99.90;;;9.88;99.70;163129.53;5032155;28;20084;-84
2022/05/13 03:43:23;;;;;;;11.60;3.10;;;9.00;99.90;;;10.15;97.97;163198.94;5032159;28;20029;-83
2022/05/13 03:45:49;;;;;;;7.03;2.28;;;9.20;99.90;;;10.41;95.27;163269.75;5032650;28;20374;-84
2022/05/13 03:48:15;;;;;;;6.38;2.30;;;9.50;99.90;;;10.69;92.60;163341.88;5032593;28;20021;-83
2022/05/13 03:50:45;;;;;;;6.82;2.55;;;9.70;99.90;;;10.94;90.54;163408.66;5034756;28;20104;-84
2022/05/13 03:53:13;;;;;;;7.25;2.50;;;9.90;99.90;;;11.09;89.07;163450.06;5034905;28;20026;-85
2022/05/13 03:55:39;;;;;;;5.22;2.28;;;10.10;99.90;;;11.13;88.13;163458.06;5034497;28;20040;-84
2022/05/13 03:58:05;;;;;;;6.68;2.55;;;10.30;99.90;;;11.23;87.42;163486.16;5049992;28;20030;-82
2022/05/13 04:00:32;;;;;;;8.45;2.40;;;10.40;99.90;;;11.33;87.27;163511.53;5049495;28;20033;-83
2022/05/13 04:03:00;;;;;;;11.82;2.42;;;10.40;99.90;;;11.29;86.84;163502.19;5032802;28;20033;-83
2022/05/13 04:10:55;;;;;;;6.30;2.42;;;10.50;99.90;;;11.32;86.14;163508.84;5045981;28;20468;-83
2022/05/13 04:16:07;;;;;;;6.45;2.10;;;10.50;99.90;;;11.41;86.14;163534.22;5069533;28;20066;-82
2022/05/13 04:18:46;;;;;;;10.27;2.42;;;10.50;99.90;;;11.34;86.85;163515.50;5073969;28;20110;-84
2022/05/13 04:21:30;;;;;;;7.90;2.38;;;10.40;99.90;;;11.35;86.37;163516.84;5071995;28;20029;-83
2022/05/13 04:24:01;;;;;;;7.90;2.78;;;10.50;99.90;;;11.31;86.92;163507.50;5058451;28;20445;-83
2022/05/13 04:26:28;;;;;;;5.22;2.53;;;10.40;99.90;;;11.32;86.98;163510.19;5055128;28;20051;-80
2022/05/13 04:28:56;;;;;;;6.70;2.67;;;10.50;99.90;;;11.38;86.81;163526.22;5055049;28;20025;-83
2022/05/13 04:31:31;;;;;;;8.60;2.53;;;10.40;99.90;;;11.35;86.74;163516.84;5055461;28;20032;-83
2022/05/13 04:33:58;;;;;;;8.45;2.45;;;10.40;99.90;;;11.33;86.56;163512.88;5056720;28;20032;-81
2022/05/13 04:36:26;;;;;;;7.47;2.47;;;10.40;99.90;;;11.26;87.60;163492.81;5055871;28;20036;-83
2022/05/13 04:38:54;;;;;;;7.32;2.67;;;10.40;99.90;;;11.18;87.91;163472.75;5055644;28;20087;-82
2022/05/13 04:44:09;;;;;;;7.88;2.03;;;10.30;99.90;;;11.16;87.72;163467.44;5057287;28;20086;-83
2022/05/13 04:46:37;;;;;;;5.57;2.28;;;10.30;99.90;;;11.18;87.96;163472.75;5055985;28;20029;-82
2022/05/13 04:49:05;;;;;;;6.30;2.40;;;10.30;99.90;;;11.29;87.87;163500.84;5055742;28;20083;-85
2022/05/13 04:51:31;;;;;;;6.97;2.15;;;10.30;99.90;;;11.40;87.00;163530.19;5055051;28;20465;-83
2022/05/13 04:53:58;;;;;;;9.27;2.72;;;10.40;99.90;;;11.45;87.58;163543.59;5071035;28;20119;-84
2022/05/13 04:56:27;;;;;;;8.90;2.40;;;10.50;99.90;;;11.57;86.56;163575.66;5055200;28;20049;-82
2022/05/13 04:58:54;;;;;;;5.57;2.10;;;10.60;99.90;;;11.73;86.55;163618.47;5056018;28;20025;-82
2022/05/13 05:01:22;;;;;;;9.05;2.00;;;10.70;99.90;;;11.92;84.71;163667.91;5072667;28;20059;-82
2022/05/13 05:03:49;;;;;;;8.15;2.88;;;10.90;99.90;;;12.04;83.48;163700.03;5055856;28;20115;-84
2022/05/13 05:06:19;;;;;;;11.52;2.50;;;11.00;99.90;;;12.22;82.69;163746.81;5056225;28;20044;-85
2022/05/13 05:08:45;;;;;;;7.38;2.08;;;11.20;99.90;;;12.31;82.19;163772.22;5059220;28;20033;-85
2022/05/13 05:11:14;;;;;;;9.93;2.17;;;11.30;99.90;;;12.31;82.27;163772.22;5042643;28;20089;-82
2022/05/13 05:13:47;;;;;;;7.60;2.00;;;11.30;99.90;;;12.40;81.58;163794.94;5036339;28;20030;-83
2022/05/13 05:16:15;;;;;;;10.32;2.70;;;11.40;99.90;;;12.40;82.55;163796.28;5035784;28;20032;-81
2022/05/13 05:18:41;;;;;;;11.25;3.10;;;11.40;99.90;;;12.13;83.08;163724.09;5034694;28;20032;-81
2022/05/13 05:21:10;;;;;;;9.35;2.25;;;11.30;99.90;;;12.18;83.31;163736.09;5036196;28;20437;-84
2022/05/13 05:23:42;;;;;;;9.20;2.83;;;11.30;99.90;;;12.28;83.09;163762.84;5036301;28;20029;-84
2022/05/13 05:26:10;;;;;;;10.77;3.45;;;11.30;99.90;;;12.42;83.85;163801.66;5036967;28;20101;-82
2022/05/13 05:28:39;;;;;;;9.75;2.67;;;11.40;99.90;;;12.64;83.27;163860.50;5037462;28;20029;-82
2022/05/13 05:31:08;;;;;;;14.25;2.80;;;11.60;99.90;;;12.64;81.91;163859.13;5038323;28;20036;-83
2022/05/13 05:33:34;;;;;;;9.52;3.20;;;11.60;99.90;;;12.68;82.13;163869.84;5037627;28;20033;-85
2022/05/13 05:36:01;;;;;;;6.90;2.85;;;11.80;99.90;;;12.73;82.52;163883.22;5052763;28;20501;-83
2022/05/13 05:38:27;;;;;;;8.85;2.75;;;11.80;99.90;;;12.81;81.96;163903.28;5038353;28;20038;-82
2022/05/13 05:40:53;;;;;;;8.95;2.88;;;11.80;99.90;;;12.78;82.50;163896.56;5037347;28;20171;-84
2022/05/13 05:43:20;;;;;;;14.90;2.90;;;11.80;99.90;;;13.05;80.89;163968.81;5038030;28;20021;-80
2022/05/13 05:45:47;;;;;;;13.90;4.20;;;12.00;99.90;;;13.02;80.20;163960.78;5035336;28;20037;-86
2022/05/13 05:48:21;;;;;;;9.43;2.75;;;12.10;99.90;;;13.12;80.74;163987.59;5036847;28;20026;-87
2022/05/13 05:50:54;;;;;;;13.23;2.60;;;12.10;99.90;;;13.39;80.66;164057.19;5054143;28;20489;-84
2022/05/13 05:59:11;;;;;;;9.25;2.67;;;12.70;99.90;;;14.34;76.20;164308.84;5036976;28;20112;-84
2022/05/13 06:01:37;;;;;;;13.50;2.80;;;13.10;99.90;;;14.20;76.22;164273.97;5035010;28;20029;-83
2022/05/13 06:04:05;;;;;;;12.50;3.85;;;13.10;99.90;;;14.08;75.35;164241.84;5041054;28;20064;-77
2022/05/13 06:06:31;;;;;;;9.07;2.65;;;13.10;99.90;;;14.12;75.36;164252.56;5074256;28;20065;-76
2022/05/13 06:09:17;;;;;;;12.20;3.38;;;13.10;99.90;;;14.30;75.51;164298.06;5042480;28;20034;-86
2022/05/13 06:11:46;;;;;;;12.30;2.72;;;13.20;99.90;;;14.45;75.01;164338.31;5055242;28;20037;-84
2022/05/13 06:14:12;;;;;;;9.48;3.00;;;13.40;99.90;;;14.66;73.88;164394.53;5054957;28;20025;-81
2022/05/13 06:16:38;;;;;;;11.52;2.95;;;13.60;99.90;;;14.65;74.14;164391.84;5054337;28;20120;-86
2022/05/13 06:19:04;;;;;;;10.27;3.53;;;13.50;99.90;;;14.66;74.30;164395.88;5054453;28;20499;-84
2022/05/13 06:21:35;;;;;;;9.38;2.83;;;13.50;99.90;;;14.74;74.07;164417.28;5053783;28;20024;-82
2022/05/13 06:24:02;;;;;;;13.70;3.40;;;13.70;99.90;;;15.23;72.46;164545.88;5054425;28;20021;-83
2022/05/13 06:26:29;;;;;;;14.82;3.45;;;14.00;99.90;;;15.62;70.34;164649.09;5054640;28;20051;-85
2022/05/13 06:28:56;;;;;;;6.82;2.10;;;14.30;99.90;;;15.56;71.14;164634.34;5054266;28;20373;-82
2022/05/13 06:31:23;;;;;;;11.07;2.95;;;14.30;99.90;;;15.30;70.53;164564.63;5056004;28;20495;-83
2022/05/13 06:33:50;;;;;;;10.38;3.38;;;14.10;99.90;;;15.07;71.66;164504.34;5072754;28;20031;-87
2022/05/13 06:36:16;;;;;;;11.63;3.30;;;14.00;99.90;;;14.90;72.79;164457.50;5057101;28;20431;-88
2022/05/13 06:38:43;;;;;;;8.45;2.70;;;13.90;99.90;;;15.16;73.00;164528.44;5056076;28;20108;-86
2022/05/13 06:41:09;;;;;;;11.23;2.65;;;14.00;99.90;;;15.87;71.01;164716.06;5056157;28;20036;-83
2022/05/13 06:43:35;;;;;;;13.50;2.83;;;14.50;99.90;;;16.41;68.25;164859.47;5055850;28;20031;-82
2022/05/13 06:46:01;;;;;;;8.95;2.58;;;15.00;99.90;;;16.96;65.27;165004.34;5056690;28;20092;-84
2022/05/13 06:48:27;;;;;;;12.23;3.08;;;15.50;99.90;;;16.87;65.02;164981.56;5054621;28;20485;-82
2022/05/13 06:50:54;;;;;;;9.35;2.75;;;15.80;99.90;;;17.24;62.92;165080.78;5055765;28;20485;-83
2022/05/13 06:53:22;;;;;;;7.70;3.13;;;16.00;99.90;;;17.72;62.36;165208.25;5055758;28;20032;-84
2022/05/13 06:55:49;;;;;;;17.08;3.58;;;16.30;99.90;;;17.79;60.52;165227.06;5054968;28;20040;-86
2022/05/13 06:58:16;;;;;;;8.95;2.83;;;16.50;99.90;;;18.18;59.59;165329.03;5053984;28;20028;-82
2022/05/13 07:00:44;;;;;;;9.10;2.88;;;16.70;99.90;;;18.50;59.11;165414.97;5054389;28;20401;-84
2022/05/13 07:03:20;;;;;;;7.10;2.10;;;17.00;99.90;;;18.81;57.96;165498.25;5054802;28;20028;-85
2022/05/13 07:05:46;;;;;;;9.60;2.70;;;17.30;99.90;;;18.88;56.89;165517.00;5054256;28;20029;-86
2022/05/13 07:08:13;;;;;;;9.43;2.38;;;17.40;99.90;;;19.46;55.60;165670.13;5054093;28;20036;-86
2022/05/13 07:10:42;;;;;;;8.82;2.70;;;17.90;99.90;;;19.53;52.95;165687.59;5053370;28;20493;-81
2022/05/13 07:13:14;;;;;;;10.20;2.90;;;18.00;99.90;;;19.01;54.63;165550.56;5053977;28;20039;-81
2022/05/13 07:15:43;;;;;;;8.63;2.35;;;17.80;99.90;;;19.55;52.97;165693.00;5051665;28;20083;-80
2022/05/13 07:18:10;;;;;;;9.00;2.33;;;18.00;99.90;;;19.52;53.05;165684.94;5054789;28;20151;-84
2022/05/13 07:20:37;;;;;;;8.88;2.60;;;18.10;99.90;;;19.87;52.14;165780.25;5055602;28;20036;-85
2022/05/13 07:23:04;;;;;;;11.15;2.70;;;18.30;99.90;;;19.77;51.55;165752.09;5055895;28;20032;-84
2022/05/13 07:25:31;;;;;;;7.35;2.40;;;18.30;97.40;;;19.79;52.20;165757.44;5055416;28;20103;-84
2022/05/13 07:27:58;;;;;;;7.32;2.72;;;18.30;99.50;;;19.80;52.25;165760.16;5054782;28;20021;-86
2022/05/13 07:30:26;;;;;;;6.38;2.15;;;18.30;99.40;;;20.22;51.11;165873.00;5055690;28;20036;-86
2022/05/13 07:32:52;;;;;;;9.63;2.58;;;18.60;98.10;;;20.08;50.59;165835.38;5074158;28;20036;-84
2022/05/13 07:35:19;;;;;;;7.85;2.22;;;18.50;96.80;;;19.36;51.34;165644.56;5059669;28;20028;-82
2022/05/13 07:37:44;;;;;;;6.45;2.60;;;18.10;95.80;;;18.86;52.97;165511.66;5059507;28;20432;-85
2022/05/13 07:42:57;;;;;;;9.20;2.63;;;17.40;99.90;;;18.31;55.06;165363.94;5059344;28;20093;-85
2022/05/13 07:45:23;;;;;;;8.32;2.22;;;17.20;99.90;;;18.49;54.71;165412.28;5065451;28;20052;-82
2022/05/13 07:47:49;;;;;;;10.18;2.58;;;17.00;99.90;;;18.43;55.93;165397.47;5057500;28;20029;-83
2022/05/13 07:50:16;;;;;;;9.27;2.40;;;17.10;99.90;;;18.88;54.23;165515.66;5054534;28;20029;-83
2022/05/13 07:52:42;;;;;;;7.28;2.22;;;17.40;99.90;;;19.08;52.12;165568.03;5059617;28;20040;-83
2022/05/13 07:55:11;;;;;;;7.68;2.65;;;17.80;99.00;;;19.73;51.49;165742.69;5058456;28;20420;-84
2022/05/13 07:57:40;;;;;;;6.78;2.13;;;18.30;98.20;;;20.33;49.76;165902.59;5059870;28;20115;-82
2022/05/13 08:00:26;;;;;;;7.30;2.47;;;18.70;96.00;;;20.55;48.42;165960.38;5058170;28;20078;-85
2022/05/13 08:03:03;;;;;;;;;;;19.00;92.40;;;20.08;48.21;165835.38;5060171;28;20025;-84
2022/05/13 08:05:36;;;;;;;;;;;18.90;88.80;;;20.45;48.68;165934.81;5059374;28;19913;-85
2022/05/13 08:08:19;;;;;;;9.30;2.20;;;19.10;90.00;;;20.54;48.14;165957.72;5060489;28;20308;-83
2022/05/13 08:10:51;;;;;;;8.77;2.60;;;19.00;89.20;;;21.11;47.41;166108.28;5050222;28;20132;-87
2022/05/13 08:13:19;;;;;;;8.43;2.47;;;19.60;87.20;;;21.39;46.51;166184.91;5056026;28;20053;-77
2022/05/13 08:15:46;;;;;;;10.80;2.38;;;19.70;84.50;;;20.81;46.78;166028.91;5052385;28;20087;-86
2022/05/13 08:18:14;;;;;;;6.30;2.33;;;19.50;82.70;;;20.83;45.97;166034.31;5038019;28;20045;-84
2022/05/13 08:20:40;;;;;;;7.03;2.50;;;19.40;80.40;;;20.17;47.77;165859.53;5038930;28;20108;-85
2022/05/13 08:23:07;;;;;;;7.22;2.38;;;19.10;82.20;;;20.65;46.08;165985.91;5039202;28;20029;-81
2022/05/13 08:25:32;;;;;;;5.18;1.65;;;19.20;80.60;;;20.57;47.70;165964.41;5037912;28;20021;-83
2022/05/13 08:27:59;;;;;;;10.23;2.20;;;19.10;84.20;;;20.88;47.24;166049.09;5039131;28;20048;-83
2022/05/13 08:30:26;;;;;;;6.90;2.13;;;19.20;83.60;;;20.42;46.40;165926.78;5037372;28;20036;-86
2022/05/13 08:32:52;;;;;;;5.95;1.90;;;19.00;80.40;;;19.50;48.21;165680.88;5038855;28;20108;-85
2022/05/13 08:35:20;;;;;;;8.30;2.17;;;18.40;81.50;;;19.14;48.96;165585.47;5038582;28;20481;-83
2022/05/13 08:37:52;;;;;;;8.40;2.20;;;18.00;83.90;;;19.08;49.96;165569.38;5038062;28;20041;-83
2022/05/13 08:40:35;;;;;;;4.63;1.70;;;17.80;87.20;;;19.69;47.64;165730.56;5037827;28;20493;-84
2022/05/13 08:43:13;;;;;;;5.68;2.15;;;18.30;84.40;;;20.73;46.36;166008.78;5036142;28;20025;-86
2022/05/13 08:46:10;;;;;;;5.15;2.10;;;19.00;83.70;;;20.84;46.65;166038.31;5036914;28;20025;-86
2022/05/13 08:49:24;;;;;;;7.70;2.05;;;19.40;81.10;;;21.68;44.85;166260.19;5036631;28;20401;-85
2022/05/13 08:55:23;;;;;;;6.13;1.52;;;20.40;76.10;;;22.43;44.49;166462.03;5038904;28;20037;-83
2022/05/13 08:57:50;;;;;;;6.07;1.77;;;20.70;77.20;;;22.14;43.13;166384.00;5039467;28;20389;-86
2022/05/13 09:00:32;;;;;;;4.85;2.05;;;20.70;73.00;;;22.74;43.56;166542.78;5038425;28;20044;-84
2022/05/13 09:03:24;;;;;;;9.45;2.08;;;21.10;74.30;;;21.62;42.88;166244.06;5038273;28;20033;-85
2022/05/13 09:06:10;;;;;;;7.05;1.48;;;20.50;70.40;;;21.66;45.09;166256.19;5038264;28;20497;-84
2022/05/13 09:08:36;;;;;;;8.38;1.83;;;20.20;74.90;;;21.67;44.86;166257.53;5037523;28;20029;-84
2022/05/13 09:12:17;;;;;;;8.45;1.92;;;20.10;75.00;;;21.91;45.30;166322.13;5068503;28;20550;-86
2022/05/13 09:15:08;;;;;;;6.88;1.90;;;20.30;76.20;;;21.15;44.14;166120.41;5047037;28;20489;-85
2022/05/13 09:17:39;;;;;;;8.85;1.60;;;19.80;74.20;;;20.44;45.74;165930.81;5056334;28;20032;-85
2022/05/13 09:20:15;;;;;;;8.35;1.60;;;19.30;74.60;;;19.85;45.87;165773.56;5055765;28;20083;-83
2022/05/13 09:23:01;;;;;;;6.47;1.52;;;18.90;74.10;;;19.49;46.82;165678.19;5058393;28;20051;-86
2022/05/13 09:25:58;;;;;;;6.20;1.20;;;18.50;76.40;;;20.18;47.23;165862.25;5056272;28;20543;-84
2022/05/13 09:28:27;;;;;;;4.82;1.40;;;18.80;77.90;;;20.88;43.67;166049.09;5056237;28;20037;-84
2022/05/13 09:31:17;;;;;;;3.88;1.60;;;19.50;73.50;;;20.75;44.84;166012.78;5055992;28;20029;-84
2022/05/13 09:33:47;;;;;;;8.18;1.60;;;19.50;74.20;;;19.79;45.56;165758.81;5058217;28;20075;-82
2022/05/13 09:36:21;;;;;;;5.13;1.75;;;18.90;73.40;;;20.44;47.79;165932.19;5056997;28;20029;-85
2022/05/13 09:38:54;;;;;;;4.40;1.60;;;19.10;79.40;;;21.27;46.83;166152.66;5056957;28;20025;-84
2022/05/13 09:41:33;;;;;;;6.32;1.63;;;19.80;78.00;;;22.81;43.55;166561.63;5056405;28;20542;-85
2022/05/13 09:44:19;;;;;;;4.90;1.65;;;20.90;75.30;;;22.01;40.20;166349.03;5057533;28;20071;-85
2022/05/13 09:47:13;;;;;;;4.50;1.33;;;20.80;65.40;;;21.51;41.28;166215.84;5070547;28;20036;-83
2022/05/13 09:49:47;;;;;;;4.15;1.33;;;20.30;67.10;;;20.67;41.72;165991.31;5071656;28;20314;-84
2022/05/13 09:52:36;;;;;;;6.15;1.33;;;19.70;66.90;;;20.07;43.61;165832.66;5071446;28;20029;-84
2022/05/13 09:55:34;;;;;;;5.90;1.30;;;19.10;69.60;;;19.69;44.39;165730.56;5057418;28;20029;-85
2022/05/13 09:58:23;;;;;;;7.03;1.33;;;18.70;70.80;;;19.55;46.45;165693.00;5057438;28;20032;-86
2022/05/13 10:00:58;;;;;;;8.77;1.67;;;18.50;73.00;;;19.16;47.12;165590.88;5058222;28;20033;-84
2022/05/13 10:03:36;;;;;;;3.80;1.35;;;18.20;74.80;;;19.12;47.38;165578.78;5055933;28;20067;-85
2022/05/13 10:06:11;;;;;;;6.85;2.10;;;18.00;75.80;;;18.98;47.89;165542.50;5057851;28;20031;-83
2022/05/13 10:14:40;;;;;;;4.45;1.30;;;17.60;78.00;;;18.76;48.94;165484.78;5023454;28;20072;-84
2022/05/13 10:17:26;;;;;;;4.88;1.40;;;17.60;79.80;;;19.12;48.68;165578.78;5024880;28;20029;-85
2022/05/13 10:20:11;;;;;;;6.32;2.10;;;17.80;80.80;;;19.91;47.98;165791.03;5033003;28;20026;-85
2022/05/13 10:23:00;;;;;;;5.60;1.90;;;18.40;80.90;;;19.97;47.68;165807.13;5028749;28;20040;-84
2022/05/13 10:25:44;;;;;;;6.65;1.60;;;18.80;77.80;;;20.61;45.80;165975.19;5015620;28;20052;-84
2022/05/13 10:28:18;;;;;;;6.38;1.65;;;19.20;76.10;;;20.04;47.38;165824.59;5014923;28;20080;-82
2022/05/13 10:31:16;;;;;;;4.78;1.75;;;18.80;77.50;;;19.47;48.23;165672.84;5014588;28;20030;-83
2022/05/13 10:34:06;;;;;;;6.75;1.80;;;18.40;78.40;;;19.21;48.63;165602.94;5014983;28;20034;-84
2022/05/13 10:36:58;;;;;;;6.47;1.70;;;18.20;79.40;;;19.33;48.32;165635.16;5017404;28;20030;-86
2022/05/13 10:40:01;;;;;;;2.28;0.98;;;18.10;79.50;;;19.30;47.70;165627.09;5015451;28;20046;-84
2022/05/13 10:42:44;;;;;;;6.65;1.10;;;18.10;78.60;;;19.59;48.50;165703.72;5013849;28;20037;-85
2022/05/13 10:45:22;;;;;;;5.80;1.73;;;18.20;80.70;;;19.56;48.06;165697.00;5015160;28;20092;-85
2022/05/13 10:48:13;;;;;;;3.08;1.10;;;18.30;80.50;;;19.30;48.82;165628.44;5017819;28;20080;-84
2022/05/13 10:51:14;;;;;;;6.18;1.65;;;18.10;80.70;;;19.21;48.74;165604.28;5016816;28;20207;-84
2022/05/13 10:54:18;;;;;;;5.35;1.50;;;18.10;80.00;;;20.34;48.42;165905.28;5016921;28;20034;-83
2022/05/13 10:57:22;;;;;;;7.25;2.00;;;18.80;83.60;;;20.42;46.34;165926.78;5003257;28;20505;-85
2022/05/13 11:00:26;;;;;;;6.28;1.45;;;19.10;77.40;;;21.42;47.64;166192.97;5013430;28;20049;-84
2022/05/13 11:03:39;;;;;;;7.28;1.85;;;19.90;79.70;;;21.68;43.22;166260.19;5015841;28;20506;-85